<?xml version="1.0" encoding="UTF-8" standalone="no" ?>
<gpx xmlns="http://www.topografix.com/GPX/1/1" xmlns:xsi="http://www.w3.org/2001/XMLSchema-instance" xsi:schemaLocation="http://www.topografix.com/GPX/1/1 http://www.topografix.com/GPX/1/1/gpx.xsd" version="1.1" creator="VisuGPX - https://www.visugpx.com">
  <metadata>
    <name>ASLPM marche à LUCHE le 2 Mars 2015</name>
    <desc><![CDATA[ASLPM marche à Luché le 2/03/2015.
]]></desc>
  </metadata>
  <trk>
    <name><![CDATA[Saint-Jean-de-Liversay Course à pied]]></name>
    <trkseg>
      <trkpt lat="46.25184" lon="-0.88644">
        <ele>7</ele>
        <time>2015-03-02T07:56:33.000Z</time>
      </trkpt>
      <trkpt lat="46.25184" lon="-0.88644">
        <ele>7</ele>
        <time>2015-03-02T07:56:34.000Z</time>
      </trkpt>
      <trkpt lat="46.25184" lon="-0.88644">
        <ele>7</ele>
        <time>2015-03-02T07:56:37.000Z</time>
      </trkpt>
      <trkpt lat="46.25184" lon="-0.88644">
        <ele>7</ele>
        <time>2015-03-02T07:56:38.000Z</time>
      </trkpt>
      <trkpt lat="46.25163" lon="-0.88648">
        <ele>7</ele>
        <time>2015-03-02T08:04:11.000Z</time>
      </trkpt>
      <trkpt lat="46.25152" lon="-0.88657">
        <ele>6.8000001907349</ele>
        <time>2015-03-02T08:04:22.000Z</time>
      </trkpt>
      <trkpt lat="46.25138" lon="-0.88665">
        <ele>6.5999999046326</ele>
        <time>2015-03-02T08:04:39.000Z</time>
      </trkpt>
      <trkpt lat="46.25142" lon="-0.88676">
        <ele>6.5999999046326</ele>
        <time>2015-03-02T08:04:54.000Z</time>
      </trkpt>
      <trkpt lat="46.25141" lon="-0.88682">
        <ele>6.4000000953674</ele>
        <time>2015-03-02T08:04:57.000Z</time>
      </trkpt>
      <trkpt lat="46.25131" lon="-0.8869">
        <ele>6.4000000953674</ele>
        <time>2015-03-02T08:05:07.000Z</time>
      </trkpt>
      <trkpt lat="46.25113" lon="-0.88697">
        <ele>6.4000000953674</ele>
        <time>2015-03-02T08:05:23.000Z</time>
      </trkpt>
      <trkpt lat="46.25095" lon="-0.88704">
        <ele>6.1999998092651</ele>
        <time>2015-03-02T08:05:39.000Z</time>
      </trkpt>
      <trkpt lat="46.25077" lon="-0.88712">
        <ele>6.1999998092651</ele>
        <time>2015-03-02T08:05:54.000Z</time>
      </trkpt>
      <trkpt lat="46.2506" lon="-0.88721">
        <ele>6</ele>
        <time>2015-03-02T08:06:08.000Z</time>
      </trkpt>
      <trkpt lat="46.25041" lon="-0.88728">
        <ele>5.8000001907349</ele>
        <time>2015-03-02T08:06:22.000Z</time>
      </trkpt>
      <trkpt lat="46.25024" lon="-0.8874">
        <ele>5.8000001907349</ele>
        <time>2015-03-02T08:06:36.000Z</time>
      </trkpt>
      <trkpt lat="46.25009" lon="-0.88756">
        <ele>5.8000001907349</ele>
        <time>2015-03-02T08:06:51.000Z</time>
      </trkpt>
      <trkpt lat="46.24996" lon="-0.88775">
        <ele>5.8000001907349</ele>
        <time>2015-03-02T08:07:05.000Z</time>
      </trkpt>
      <trkpt lat="46.24984" lon="-0.88795">
        <ele>6</ele>
        <time>2015-03-02T08:07:19.000Z</time>
      </trkpt>
      <trkpt lat="46.2498" lon="-0.88822">
        <ele>5.8000001907349</ele>
        <time>2015-03-02T08:07:34.000Z</time>
      </trkpt>
      <trkpt lat="46.24983" lon="-0.88848">
        <ele>5.4000000953674</ele>
        <time>2015-03-02T08:07:49.000Z</time>
      </trkpt>
      <trkpt lat="46.24986" lon="-0.88874">
        <ele>5.1999998092651</ele>
        <time>2015-03-02T08:08:02.000Z</time>
      </trkpt>
      <trkpt lat="46.24991" lon="-0.88901">
        <ele>5</ele>
        <time>2015-03-02T08:08:17.000Z</time>
      </trkpt>
      <trkpt lat="46.24996" lon="-0.88925">
        <ele>4.8000001907349</ele>
        <time>2015-03-02T08:08:31.000Z</time>
      </trkpt>
      <trkpt lat="46.24998" lon="-0.88931">
        <ele>4.8000001907349</ele>
        <time>2015-03-02T08:08:35.000Z</time>
      </trkpt>
      <trkpt lat="46.25006" lon="-0.88956">
        <ele>4.5999999046326</ele>
        <time>2015-03-02T08:08:49.000Z</time>
      </trkpt>
      <trkpt lat="46.25015" lon="-0.88979">
        <ele>5</ele>
        <time>2015-03-02T08:09:03.000Z</time>
      </trkpt>
      <trkpt lat="46.25026" lon="-0.89001">
        <ele>5.8000001907349</ele>
        <time>2015-03-02T08:09:17.000Z</time>
      </trkpt>
      <trkpt lat="46.25036" lon="-0.89024">
        <ele>6</ele>
        <time>2015-03-02T08:09:31.000Z</time>
      </trkpt>
      <trkpt lat="46.25044" lon="-0.89049">
        <ele>6</ele>
        <time>2015-03-02T08:09:45.000Z</time>
      </trkpt>
      <trkpt lat="46.25052" lon="-0.89074">
        <ele>6</ele>
        <time>2015-03-02T08:09:59.000Z</time>
      </trkpt>
      <trkpt lat="46.25057" lon="-0.89099">
        <ele>5.1999998092651</ele>
        <time>2015-03-02T08:10:14.000Z</time>
      </trkpt>
      <trkpt lat="46.25059" lon="-0.89125">
        <ele>4.4000000953674</ele>
        <time>2015-03-02T08:10:28.000Z</time>
      </trkpt>
      <trkpt lat="46.2506" lon="-0.89153">
        <ele>4.1999998092651</ele>
        <time>2015-03-02T08:10:42.000Z</time>
      </trkpt>
      <trkpt lat="46.2506" lon="-0.89179">
        <ele>4.4000000953674</ele>
        <time>2015-03-02T08:10:55.000Z</time>
      </trkpt>
      <trkpt lat="46.25044" lon="-0.8919">
        <ele>4.8000001907349</ele>
        <time>2015-03-02T08:11:11.000Z</time>
      </trkpt>
      <trkpt lat="46.25026" lon="-0.89196">
        <ele>5.1999998092651</ele>
        <time>2015-03-02T08:11:24.000Z</time>
      </trkpt>
      <trkpt lat="46.25008" lon="-0.89202">
        <ele>5.4000000953674</ele>
        <time>2015-03-02T08:11:38.000Z</time>
      </trkpt>
      <trkpt lat="46.24995" lon="-0.89206">
        <ele>5.5999999046326</ele>
        <time>2015-03-02T08:11:48.000Z</time>
      </trkpt>
      <trkpt lat="46.24977" lon="-0.89211">
        <ele>6.1999998092651</ele>
        <time>2015-03-02T08:12:02.000Z</time>
      </trkpt>
      <trkpt lat="46.24959" lon="-0.89216">
        <ele>6.4000000953674</ele>
        <time>2015-03-02T08:12:17.000Z</time>
      </trkpt>
      <trkpt lat="46.24954" lon="-0.89217">
        <ele>6.4000000953674</ele>
        <time>2015-03-02T08:12:21.000Z</time>
      </trkpt>
      <trkpt lat="46.24946" lon="-0.89217">
        <ele>6.4000000953674</ele>
        <time>2015-03-02T08:12:26.000Z</time>
      </trkpt>
      <trkpt lat="46.24944" lon="-0.89217">
        <ele>6.4000000953674</ele>
        <time>2015-03-02T08:12:28.000Z</time>
      </trkpt>
      <trkpt lat="46.24926" lon="-0.8922">
        <ele>6.5999999046326</ele>
        <time>2015-03-02T08:12:42.000Z</time>
      </trkpt>
      <trkpt lat="46.24908" lon="-0.89222">
        <ele>6.8000001907349</ele>
        <time>2015-03-02T08:12:55.000Z</time>
      </trkpt>
      <trkpt lat="46.24889" lon="-0.89225">
        <ele>7.1999998092651</ele>
        <time>2015-03-02T08:13:08.000Z</time>
      </trkpt>
      <trkpt lat="46.2487" lon="-0.89231">
        <ele>8</ele>
        <time>2015-03-02T08:13:23.000Z</time>
      </trkpt>
      <trkpt lat="46.24852" lon="-0.89235">
        <ele>8.6000003814697</ele>
        <time>2015-03-02T08:13:36.000Z</time>
      </trkpt>
      <trkpt lat="46.24844" lon="-0.89236">
        <ele>8.8000001907349</ele>
        <time>2015-03-02T08:13:42.000Z</time>
      </trkpt>
      <trkpt lat="46.24827" lon="-0.89238">
        <ele>9.3999996185303</ele>
        <time>2015-03-02T08:13:55.000Z</time>
      </trkpt>
      <trkpt lat="46.24809" lon="-0.89232">
        <ele>10.199999809265</ele>
        <time>2015-03-02T08:14:07.000Z</time>
      </trkpt>
      <trkpt lat="46.24791" lon="-0.89225">
        <ele>10.60000038147</ele>
        <time>2015-03-02T08:14:20.000Z</time>
      </trkpt>
      <trkpt lat="46.24775" lon="-0.89212">
        <ele>11</ele>
        <time>2015-03-02T08:14:33.000Z</time>
      </trkpt>
      <trkpt lat="46.24759" lon="-0.89198">
        <ele>11.199999809265</ele>
        <time>2015-03-02T08:14:47.000Z</time>
      </trkpt>
      <trkpt lat="46.24743" lon="-0.89186">
        <ele>11.39999961853</ele>
        <time>2015-03-02T08:15:01.000Z</time>
      </trkpt>
      <trkpt lat="46.24725" lon="-0.89178">
        <ele>11.60000038147</ele>
        <time>2015-03-02T08:15:16.000Z</time>
      </trkpt>
      <trkpt lat="46.24707" lon="-0.89171">
        <ele>12</ele>
        <time>2015-03-02T08:15:31.000Z</time>
      </trkpt>
      <trkpt lat="46.24689" lon="-0.8917">
        <ele>12.39999961853</ele>
        <time>2015-03-02T08:15:47.000Z</time>
      </trkpt>
      <trkpt lat="46.24671" lon="-0.89163">
        <ele>12.60000038147</ele>
        <time>2015-03-02T08:16:01.000Z</time>
      </trkpt>
      <trkpt lat="46.24652" lon="-0.89156">
        <ele>13</ele>
        <time>2015-03-02T08:16:15.000Z</time>
      </trkpt>
      <trkpt lat="46.24634" lon="-0.89151">
        <ele>13.199999809265</ele>
        <time>2015-03-02T08:16:28.000Z</time>
      </trkpt>
      <trkpt lat="46.24616" lon="-0.89142">
        <ele>13.39999961853</ele>
        <time>2015-03-02T08:16:41.000Z</time>
      </trkpt>
      <trkpt lat="46.24598" lon="-0.89135">
        <ele>13.60000038147</ele>
        <time>2015-03-02T08:16:57.000Z</time>
      </trkpt>
      <trkpt lat="46.2458" lon="-0.89128">
        <ele>13.60000038147</ele>
        <time>2015-03-02T08:17:10.000Z</time>
      </trkpt>
      <trkpt lat="46.24563" lon="-0.8912">
        <ele>14</ele>
        <time>2015-03-02T08:17:24.000Z</time>
      </trkpt>
      <trkpt lat="46.24544" lon="-0.89112">
        <ele>14</ele>
        <time>2015-03-02T08:17:39.000Z</time>
      </trkpt>
      <trkpt lat="46.24526" lon="-0.89109">
        <ele>14</ele>
        <time>2015-03-02T08:17:53.000Z</time>
      </trkpt>
      <trkpt lat="46.24508" lon="-0.89107">
        <ele>14</ele>
        <time>2015-03-02T08:18:07.000Z</time>
      </trkpt>
      <trkpt lat="46.24489" lon="-0.89107">
        <ele>14</ele>
        <time>2015-03-02T08:18:21.000Z</time>
      </trkpt>
      <trkpt lat="46.2447" lon="-0.89105">
        <ele>14.199999809265</ele>
        <time>2015-03-02T08:18:36.000Z</time>
      </trkpt>
      <trkpt lat="46.24451" lon="-0.89104">
        <ele>14.39999961853</ele>
        <time>2015-03-02T08:18:51.000Z</time>
      </trkpt>
      <trkpt lat="46.24433" lon="-0.89102">
        <ele>14.60000038147</ele>
        <time>2015-03-02T08:19:06.000Z</time>
      </trkpt>
      <trkpt lat="46.24419" lon="-0.89102">
        <ele>14.800000190735</ele>
        <time>2015-03-02T08:19:18.000Z</time>
      </trkpt>
      <trkpt lat="46.244" lon="-0.89103">
        <ele>15</ele>
        <time>2015-03-02T08:19:32.000Z</time>
      </trkpt>
      <trkpt lat="46.24381" lon="-0.89104">
        <ele>15.39999961853</ele>
        <time>2015-03-02T08:19:46.000Z</time>
      </trkpt>
      <trkpt lat="46.24362" lon="-0.89106">
        <ele>15.800000190735</ele>
        <time>2015-03-02T08:20:00.000Z</time>
      </trkpt>
      <trkpt lat="46.24345" lon="-0.89107">
        <ele>16.200000762939</ele>
        <time>2015-03-02T08:20:13.000Z</time>
      </trkpt>
      <trkpt lat="46.24339" lon="-0.89107">
        <ele>16.200000762939</ele>
        <time>2015-03-02T08:20:18.000Z</time>
      </trkpt>
      <trkpt lat="46.2432" lon="-0.89109">
        <ele>16.60000038147</ele>
        <time>2015-03-02T08:20:33.000Z</time>
      </trkpt>
      <trkpt lat="46.24316" lon="-0.89108">
        <ele>16.60000038147</ele>
        <time>2015-03-02T08:20:36.000Z</time>
      </trkpt>
      <trkpt lat="46.2431" lon="-0.89107">
        <ele>16.60000038147</ele>
        <time>2015-03-02T08:20:42.000Z</time>
      </trkpt>
      <trkpt lat="46.24308" lon="-0.89106">
        <ele>16.60000038147</ele>
        <time>2015-03-02T08:20:46.000Z</time>
      </trkpt>
      <trkpt lat="46.24296" lon="-0.89107">
        <ele>17</ele>
        <time>2015-03-02T08:21:19.000Z</time>
      </trkpt>
      <trkpt lat="46.24277" lon="-0.89111">
        <ele>17.60000038147</ele>
        <time>2015-03-02T08:21:35.000Z</time>
      </trkpt>
      <trkpt lat="46.24258" lon="-0.89114">
        <ele>18</ele>
        <time>2015-03-02T08:21:50.000Z</time>
      </trkpt>
      <trkpt lat="46.2424" lon="-0.89117">
        <ele>18.799999237061</ele>
        <time>2015-03-02T08:22:04.000Z</time>
      </trkpt>
      <trkpt lat="46.24221" lon="-0.8912">
        <ele>19.39999961853</ele>
        <time>2015-03-02T08:22:18.000Z</time>
      </trkpt>
      <trkpt lat="46.24203" lon="-0.89121">
        <ele>19.799999237061</ele>
        <time>2015-03-02T08:22:32.000Z</time>
      </trkpt>
      <trkpt lat="46.24185" lon="-0.89123">
        <ele>20.200000762939</ele>
        <time>2015-03-02T08:22:47.000Z</time>
      </trkpt>
      <trkpt lat="46.24166" lon="-0.89124">
        <ele>20.60000038147</ele>
        <time>2015-03-02T08:23:02.000Z</time>
      </trkpt>
      <trkpt lat="46.24147" lon="-0.89124">
        <ele>21.200000762939</ele>
        <time>2015-03-02T08:23:18.000Z</time>
      </trkpt>
      <trkpt lat="46.24129" lon="-0.89124">
        <ele>22.200000762939</ele>
        <time>2015-03-02T08:23:33.000Z</time>
      </trkpt>
      <trkpt lat="46.2411" lon="-0.89123">
        <ele>23.39999961853</ele>
        <time>2015-03-02T08:23:47.000Z</time>
      </trkpt>
      <trkpt lat="46.24092" lon="-0.89121">
        <ele>24.39999961853</ele>
        <time>2015-03-02T08:24:01.000Z</time>
      </trkpt>
      <trkpt lat="46.24074" lon="-0.89123">
        <ele>25.39999961853</ele>
        <time>2015-03-02T08:24:15.000Z</time>
      </trkpt>
      <trkpt lat="46.24055" lon="-0.89118">
        <ele>26</ele>
        <time>2015-03-02T08:24:31.000Z</time>
      </trkpt>
      <trkpt lat="46.24036" lon="-0.89117">
        <ele>26</ele>
        <time>2015-03-02T08:24:46.000Z</time>
      </trkpt>
      <trkpt lat="46.24018" lon="-0.89118">
        <ele>26</ele>
        <time>2015-03-02T08:24:59.000Z</time>
      </trkpt>
      <trkpt lat="46.23999" lon="-0.8912">
        <ele>26</ele>
        <time>2015-03-02T08:25:13.000Z</time>
      </trkpt>
      <trkpt lat="46.23981" lon="-0.89121">
        <ele>26.200000762939</ele>
        <time>2015-03-02T08:25:27.000Z</time>
      </trkpt>
      <trkpt lat="46.23962" lon="-0.89121">
        <ele>26.200000762939</ele>
        <time>2015-03-02T08:25:42.000Z</time>
      </trkpt>
      <trkpt lat="46.23942" lon="-0.89121">
        <ele>26.200000762939</ele>
        <time>2015-03-02T08:25:57.000Z</time>
      </trkpt>
      <trkpt lat="46.23924" lon="-0.8912">
        <ele>26.200000762939</ele>
        <time>2015-03-02T08:26:11.000Z</time>
      </trkpt>
      <trkpt lat="46.23905" lon="-0.89119">
        <ele>26.200000762939</ele>
        <time>2015-03-02T08:26:24.000Z</time>
      </trkpt>
      <trkpt lat="46.23887" lon="-0.89121">
        <ele>26.200000762939</ele>
        <time>2015-03-02T08:26:40.000Z</time>
      </trkpt>
      <trkpt lat="46.23868" lon="-0.89123">
        <ele>26.200000762939</ele>
        <time>2015-03-02T08:26:57.000Z</time>
      </trkpt>
      <trkpt lat="46.2385" lon="-0.89123">
        <ele>26.200000762939</ele>
        <time>2015-03-02T08:27:12.000Z</time>
      </trkpt>
      <trkpt lat="46.23832" lon="-0.89123">
        <ele>26.200000762939</ele>
        <time>2015-03-02T08:27:25.000Z</time>
      </trkpt>
      <trkpt lat="46.23812" lon="-0.89126">
        <ele>26</ele>
        <time>2015-03-02T08:27:39.000Z</time>
      </trkpt>
      <trkpt lat="46.23793" lon="-0.89126">
        <ele>25.799999237061</ele>
        <time>2015-03-02T08:27:53.000Z</time>
      </trkpt>
      <trkpt lat="46.23774" lon="-0.89127">
        <ele>25.60000038147</ele>
        <time>2015-03-02T08:28:07.000Z</time>
      </trkpt>
      <trkpt lat="46.23756" lon="-0.89127">
        <ele>25.39999961853</ele>
        <time>2015-03-02T08:28:20.000Z</time>
      </trkpt>
      <trkpt lat="46.23737" lon="-0.89126">
        <ele>25.200000762939</ele>
        <time>2015-03-02T08:28:34.000Z</time>
      </trkpt>
      <trkpt lat="46.23719" lon="-0.89124">
        <ele>25.200000762939</ele>
        <time>2015-03-02T08:28:47.000Z</time>
      </trkpt>
      <trkpt lat="46.237" lon="-0.89123">
        <ele>25.200000762939</ele>
        <time>2015-03-02T08:29:00.000Z</time>
      </trkpt>
      <trkpt lat="46.23683" lon="-0.89116">
        <ele>25.200000762939</ele>
        <time>2015-03-02T08:29:13.000Z</time>
      </trkpt>
      <trkpt lat="46.23666" lon="-0.89106">
        <ele>25.200000762939</ele>
        <time>2015-03-02T08:29:27.000Z</time>
      </trkpt>
      <trkpt lat="46.23649" lon="-0.89091">
        <ele>25</ele>
        <time>2015-03-02T08:29:41.000Z</time>
      </trkpt>
      <trkpt lat="46.23634" lon="-0.89073">
        <ele>25</ele>
        <time>2015-03-02T08:29:54.000Z</time>
      </trkpt>
      <trkpt lat="46.23621" lon="-0.89055">
        <ele>25</ele>
        <time>2015-03-02T08:30:08.000Z</time>
      </trkpt>
      <trkpt lat="46.23606" lon="-0.89037">
        <ele>25.200000762939</ele>
        <time>2015-03-02T08:30:22.000Z</time>
      </trkpt>
      <trkpt lat="46.23592" lon="-0.89019">
        <ele>25.39999961853</ele>
        <time>2015-03-02T08:30:35.000Z</time>
      </trkpt>
      <trkpt lat="46.23576" lon="-0.89002">
        <ele>25.200000762939</ele>
        <time>2015-03-02T08:30:48.000Z</time>
      </trkpt>
      <trkpt lat="46.23562" lon="-0.88987">
        <ele>25</ele>
        <time>2015-03-02T08:31:01.000Z</time>
      </trkpt>
      <trkpt lat="46.23547" lon="-0.8897">
        <ele>24.799999237061</ele>
        <time>2015-03-02T08:31:14.000Z</time>
      </trkpt>
      <trkpt lat="46.23532" lon="-0.88954">
        <ele>24.60000038147</ele>
        <time>2015-03-02T08:31:27.000Z</time>
      </trkpt>
      <trkpt lat="46.23515" lon="-0.88942">
        <ele>24.39999961853</ele>
        <time>2015-03-02T08:31:40.000Z</time>
      </trkpt>
      <trkpt lat="46.23497" lon="-0.88936">
        <ele>24.60000038147</ele>
        <time>2015-03-02T08:31:53.000Z</time>
      </trkpt>
      <trkpt lat="46.23478" lon="-0.88928">
        <ele>25</ele>
        <time>2015-03-02T08:32:06.000Z</time>
      </trkpt>
      <trkpt lat="46.23461" lon="-0.8892">
        <ele>25.200000762939</ele>
        <time>2015-03-02T08:32:19.000Z</time>
      </trkpt>
      <trkpt lat="46.23443" lon="-0.88914">
        <ele>25</ele>
        <time>2015-03-02T08:32:32.000Z</time>
      </trkpt>
      <trkpt lat="46.23424" lon="-0.88912">
        <ele>24.200000762939</ele>
        <time>2015-03-02T08:32:46.000Z</time>
      </trkpt>
      <trkpt lat="46.23405" lon="-0.88913">
        <ele>23.60000038147</ele>
        <time>2015-03-02T08:32:58.000Z</time>
      </trkpt>
      <trkpt lat="46.23388" lon="-0.8892">
        <ele>23.200000762939</ele>
        <time>2015-03-02T08:33:10.000Z</time>
      </trkpt>
      <trkpt lat="46.2337" lon="-0.8893">
        <ele>22.799999237061</ele>
        <time>2015-03-02T08:33:23.000Z</time>
      </trkpt>
      <trkpt lat="46.23353" lon="-0.8894">
        <ele>22.60000038147</ele>
        <time>2015-03-02T08:33:36.000Z</time>
      </trkpt>
      <trkpt lat="46.23336" lon="-0.88952">
        <ele>22.39999961853</ele>
        <time>2015-03-02T08:33:49.000Z</time>
      </trkpt>
      <trkpt lat="46.2332" lon="-0.88965">
        <ele>22</ele>
        <time>2015-03-02T08:34:02.000Z</time>
      </trkpt>
      <trkpt lat="46.23303" lon="-0.88977">
        <ele>21.799999237061</ele>
        <time>2015-03-02T08:34:16.000Z</time>
      </trkpt>
      <trkpt lat="46.23286" lon="-0.88986">
        <ele>21.60000038147</ele>
        <time>2015-03-02T08:34:29.000Z</time>
      </trkpt>
      <trkpt lat="46.23269" lon="-0.88995">
        <ele>21.200000762939</ele>
        <time>2015-03-02T08:34:43.000Z</time>
      </trkpt>
      <trkpt lat="46.23251" lon="-0.89003">
        <ele>21</ele>
        <time>2015-03-02T08:34:56.000Z</time>
      </trkpt>
      <trkpt lat="46.23234" lon="-0.89012">
        <ele>20.60000038147</ele>
        <time>2015-03-02T08:35:09.000Z</time>
      </trkpt>
      <trkpt lat="46.23216" lon="-0.89014">
        <ele>20</ele>
        <time>2015-03-02T08:35:23.000Z</time>
      </trkpt>
      <trkpt lat="46.232" lon="-0.89">
        <ele>19.60000038147</ele>
        <time>2015-03-02T08:35:37.000Z</time>
      </trkpt>
      <trkpt lat="46.23186" lon="-0.88983">
        <ele>19.39999961853</ele>
        <time>2015-03-02T08:35:50.000Z</time>
      </trkpt>
      <trkpt lat="46.23173" lon="-0.88965">
        <ele>19</ele>
        <time>2015-03-02T08:36:03.000Z</time>
      </trkpt>
      <trkpt lat="46.23161" lon="-0.88946">
        <ele>18.60000038147</ele>
        <time>2015-03-02T08:36:16.000Z</time>
      </trkpt>
      <trkpt lat="46.23149" lon="-0.88925">
        <ele>18.200000762939</ele>
        <time>2015-03-02T08:36:28.000Z</time>
      </trkpt>
      <trkpt lat="46.23137" lon="-0.88904">
        <ele>17.60000038147</ele>
        <time>2015-03-02T08:36:41.000Z</time>
      </trkpt>
      <trkpt lat="46.23124" lon="-0.88884">
        <ele>16.60000038147</ele>
        <time>2015-03-02T08:36:54.000Z</time>
      </trkpt>
      <trkpt lat="46.23109" lon="-0.88872">
        <ele>15.800000190735</ele>
        <time>2015-03-02T08:37:07.000Z</time>
      </trkpt>
      <trkpt lat="46.23098" lon="-0.88872">
        <ele>15.199999809265</ele>
        <time>2015-03-02T08:37:14.000Z</time>
      </trkpt>
      <trkpt lat="46.23083" lon="-0.88875">
        <ele>14.199999809265</ele>
        <time>2015-03-02T08:37:24.000Z</time>
      </trkpt>
      <trkpt lat="46.23076" lon="-0.88877">
        <ele>13.800000190735</ele>
        <time>2015-03-02T08:37:30.000Z</time>
      </trkpt>
      <trkpt lat="46.23059" lon="-0.88883">
        <ele>13</ele>
        <time>2015-03-02T08:37:47.000Z</time>
      </trkpt>
      <trkpt lat="46.23049" lon="-0.88912">
        <ele>13.199999809265</ele>
        <time>2015-03-02T08:42:07.000Z</time>
      </trkpt>
      <trkpt lat="46.23048" lon="-0.88914">
        <ele>13.199999809265</ele>
        <time>2015-03-02T08:42:08.000Z</time>
      </trkpt>
      <trkpt lat="46.2304" lon="-0.88938">
        <ele>13.60000038147</ele>
        <time>2015-03-02T08:42:23.000Z</time>
      </trkpt>
      <trkpt lat="46.23031" lon="-0.88961">
        <ele>13.800000190735</ele>
        <time>2015-03-02T08:42:37.000Z</time>
      </trkpt>
      <trkpt lat="46.23022" lon="-0.88986">
        <ele>14.199999809265</ele>
        <time>2015-03-02T08:42:52.000Z</time>
      </trkpt>
      <trkpt lat="46.23014" lon="-0.89009">
        <ele>14.39999961853</ele>
        <time>2015-03-02T08:43:06.000Z</time>
      </trkpt>
      <trkpt lat="46.23006" lon="-0.89033">
        <ele>14.800000190735</ele>
        <time>2015-03-02T08:43:20.000Z</time>
      </trkpt>
      <trkpt lat="46.22999" lon="-0.89058">
        <ele>15</ele>
        <time>2015-03-02T08:43:34.000Z</time>
      </trkpt>
      <trkpt lat="46.22992" lon="-0.89083">
        <ele>15.60000038147</ele>
        <time>2015-03-02T08:43:48.000Z</time>
      </trkpt>
      <trkpt lat="46.22985" lon="-0.89107">
        <ele>16.200000762939</ele>
        <time>2015-03-02T08:44:01.000Z</time>
      </trkpt>
      <trkpt lat="46.22982" lon="-0.8912">
        <ele>16.60000038147</ele>
        <time>2015-03-02T08:44:09.000Z</time>
      </trkpt>
      <trkpt lat="46.22982" lon="-0.89124">
        <ele>16.60000038147</ele>
        <time>2015-03-02T08:44:13.000Z</time>
      </trkpt>
      <trkpt lat="46.22973" lon="-0.89148">
        <ele>17</ele>
        <time>2015-03-02T08:44:32.000Z</time>
      </trkpt>
      <trkpt lat="46.22963" lon="-0.89172">
        <ele>16.799999237061</ele>
        <time>2015-03-02T08:44:46.000Z</time>
      </trkpt>
      <trkpt lat="46.22956" lon="-0.89192">
        <ele>16.799999237061</ele>
        <time>2015-03-02T08:44:59.000Z</time>
      </trkpt>
      <trkpt lat="46.22953" lon="-0.89202">
        <ele>16.60000038147</ele>
        <time>2015-03-02T08:45:06.000Z</time>
      </trkpt>
      <trkpt lat="46.22947" lon="-0.89228">
        <ele>16.60000038147</ele>
        <time>2015-03-02T08:45:20.000Z</time>
      </trkpt>
      <trkpt lat="46.22943" lon="-0.89255">
        <ele>16.60000038147</ele>
        <time>2015-03-02T08:45:35.000Z</time>
      </trkpt>
      <trkpt lat="46.2294" lon="-0.89281">
        <ele>16.60000038147</ele>
        <time>2015-03-02T08:45:49.000Z</time>
      </trkpt>
      <trkpt lat="46.22938" lon="-0.89309">
        <ele>16.60000038147</ele>
        <time>2015-03-02T08:46:03.000Z</time>
      </trkpt>
      <trkpt lat="46.22934" lon="-0.89336">
        <ele>16.39999961853</ele>
        <time>2015-03-02T08:46:17.000Z</time>
      </trkpt>
      <trkpt lat="46.22931" lon="-0.89362">
        <ele>16.60000038147</ele>
        <time>2015-03-02T08:46:31.000Z</time>
      </trkpt>
      <trkpt lat="46.22927" lon="-0.89388">
        <ele>16.799999237061</ele>
        <time>2015-03-02T08:46:44.000Z</time>
      </trkpt>
      <trkpt lat="46.22924" lon="-0.89415">
        <ele>17.200000762939</ele>
        <time>2015-03-02T08:46:58.000Z</time>
      </trkpt>
      <trkpt lat="46.22922" lon="-0.89442">
        <ele>17.799999237061</ele>
        <time>2015-03-02T08:47:12.000Z</time>
      </trkpt>
      <trkpt lat="46.22918" lon="-0.89468">
        <ele>18</ele>
        <time>2015-03-02T08:47:25.000Z</time>
      </trkpt>
      <trkpt lat="46.22915" lon="-0.89494">
        <ele>18</ele>
        <time>2015-03-02T08:47:40.000Z</time>
      </trkpt>
      <trkpt lat="46.22913" lon="-0.89511">
        <ele>18</ele>
        <time>2015-03-02T08:47:50.000Z</time>
      </trkpt>
      <trkpt lat="46.2291" lon="-0.89538">
        <ele>18</ele>
        <time>2015-03-02T08:48:06.000Z</time>
      </trkpt>
      <trkpt lat="46.22906" lon="-0.89564">
        <ele>17.799999237061</ele>
        <time>2015-03-02T08:48:20.000Z</time>
      </trkpt>
      <trkpt lat="46.22902" lon="-0.8959">
        <ele>18</ele>
        <time>2015-03-02T08:48:33.000Z</time>
      </trkpt>
      <trkpt lat="46.22899" lon="-0.89616">
        <ele>18</ele>
        <time>2015-03-02T08:48:46.000Z</time>
      </trkpt>
      <trkpt lat="46.22895" lon="-0.89642">
        <ele>18</ele>
        <time>2015-03-02T08:48:59.000Z</time>
      </trkpt>
      <trkpt lat="46.22889" lon="-0.89668">
        <ele>17.60000038147</ele>
        <time>2015-03-02T08:49:13.000Z</time>
      </trkpt>
      <trkpt lat="46.22882" lon="-0.89692">
        <ele>17.39999961853</ele>
        <time>2015-03-02T08:49:26.000Z</time>
      </trkpt>
      <trkpt lat="46.22875" lon="-0.89717">
        <ele>17</ele>
        <time>2015-03-02T08:49:40.000Z</time>
      </trkpt>
      <trkpt lat="46.22869" lon="-0.89744">
        <ele>17</ele>
        <time>2015-03-02T08:49:54.000Z</time>
      </trkpt>
      <trkpt lat="46.22862" lon="-0.89768">
        <ele>17.200000762939</ele>
        <time>2015-03-02T08:50:08.000Z</time>
      </trkpt>
      <trkpt lat="46.22858" lon="-0.89794">
        <ele>17.39999961853</ele>
        <time>2015-03-02T08:50:22.000Z</time>
      </trkpt>
      <trkpt lat="46.22856" lon="-0.8982">
        <ele>17.60000038147</ele>
        <time>2015-03-02T08:50:36.000Z</time>
      </trkpt>
      <trkpt lat="46.22854" lon="-0.89846">
        <ele>18</ele>
        <time>2015-03-02T08:50:50.000Z</time>
      </trkpt>
      <trkpt lat="46.22851" lon="-0.89873">
        <ele>18.60000038147</ele>
        <time>2015-03-02T08:51:04.000Z</time>
      </trkpt>
      <trkpt lat="46.22848" lon="-0.89899">
        <ele>18.799999237061</ele>
        <time>2015-03-02T08:51:18.000Z</time>
      </trkpt>
      <trkpt lat="46.22846" lon="-0.89926">
        <ele>18.799999237061</ele>
        <time>2015-03-02T08:51:32.000Z</time>
      </trkpt>
      <trkpt lat="46.22844" lon="-0.89952">
        <ele>18.799999237061</ele>
        <time>2015-03-02T08:51:46.000Z</time>
      </trkpt>
      <trkpt lat="46.22842" lon="-0.89978">
        <ele>18.799999237061</ele>
        <time>2015-03-02T08:51:59.000Z</time>
      </trkpt>
      <trkpt lat="46.22838" lon="-0.90005">
        <ele>18.60000038147</ele>
        <time>2015-03-02T08:52:13.000Z</time>
      </trkpt>
      <trkpt lat="46.22837" lon="-0.90032">
        <ele>18.60000038147</ele>
        <time>2015-03-02T08:52:27.000Z</time>
      </trkpt>
      <trkpt lat="46.22834" lon="-0.90057">
        <ele>18.799999237061</ele>
        <time>2015-03-02T08:52:41.000Z</time>
      </trkpt>
      <trkpt lat="46.22831" lon="-0.90084">
        <ele>18.60000038147</ele>
        <time>2015-03-02T08:52:55.000Z</time>
      </trkpt>
      <trkpt lat="46.22828" lon="-0.90111">
        <ele>18.60000038147</ele>
        <time>2015-03-02T08:53:08.000Z</time>
      </trkpt>
      <trkpt lat="46.22825" lon="-0.90137">
        <ele>18.39999961853</ele>
        <time>2015-03-02T08:53:21.000Z</time>
      </trkpt>
      <trkpt lat="46.22823" lon="-0.90163">
        <ele>18.200000762939</ele>
        <time>2015-03-02T08:53:35.000Z</time>
      </trkpt>
      <trkpt lat="46.2282" lon="-0.9019">
        <ele>18.200000762939</ele>
        <time>2015-03-02T08:53:49.000Z</time>
      </trkpt>
      <trkpt lat="46.22817" lon="-0.90217">
        <ele>18.200000762939</ele>
        <time>2015-03-02T08:54:03.000Z</time>
      </trkpt>
      <trkpt lat="46.22813" lon="-0.90244">
        <ele>17.799999237061</ele>
        <time>2015-03-02T08:54:17.000Z</time>
      </trkpt>
      <trkpt lat="46.22811" lon="-0.90272">
        <ele>17.39999961853</ele>
        <time>2015-03-02T08:54:31.000Z</time>
      </trkpt>
      <trkpt lat="46.22808" lon="-0.90299">
        <ele>17</ele>
        <time>2015-03-02T08:54:45.000Z</time>
      </trkpt>
      <trkpt lat="46.22806" lon="-0.90325">
        <ele>17</ele>
        <time>2015-03-02T08:54:59.000Z</time>
      </trkpt>
      <trkpt lat="46.22804" lon="-0.90352">
        <ele>17.39999961853</ele>
        <time>2015-03-02T08:55:13.000Z</time>
      </trkpt>
      <trkpt lat="46.22801" lon="-0.90379">
        <ele>17.60000038147</ele>
        <time>2015-03-02T08:55:27.000Z</time>
      </trkpt>
      <trkpt lat="46.228" lon="-0.90406">
        <ele>18</ele>
        <time>2015-03-02T08:55:41.000Z</time>
      </trkpt>
      <trkpt lat="46.22797" lon="-0.90432">
        <ele>18</ele>
        <time>2015-03-02T08:55:55.000Z</time>
      </trkpt>
      <trkpt lat="46.22797" lon="-0.90459">
        <ele>18</ele>
        <time>2015-03-02T08:56:09.000Z</time>
      </trkpt>
      <trkpt lat="46.22794" lon="-0.90485">
        <ele>18.200000762939</ele>
        <time>2015-03-02T08:56:23.000Z</time>
      </trkpt>
      <trkpt lat="46.22791" lon="-0.90512">
        <ele>18.200000762939</ele>
        <time>2015-03-02T08:56:38.000Z</time>
      </trkpt>
      <trkpt lat="46.22788" lon="-0.90539">
        <ele>18.200000762939</ele>
        <time>2015-03-02T08:56:52.000Z</time>
      </trkpt>
      <trkpt lat="46.22784" lon="-0.90566">
        <ele>18.200000762939</ele>
        <time>2015-03-02T08:57:06.000Z</time>
      </trkpt>
      <trkpt lat="46.22781" lon="-0.90593">
        <ele>18</ele>
        <time>2015-03-02T08:57:20.000Z</time>
      </trkpt>
      <trkpt lat="46.2278" lon="-0.90619">
        <ele>18</ele>
        <time>2015-03-02T08:57:33.000Z</time>
      </trkpt>
      <trkpt lat="46.22777" lon="-0.90646">
        <ele>18</ele>
        <time>2015-03-02T08:57:47.000Z</time>
      </trkpt>
      <trkpt lat="46.22774" lon="-0.90671">
        <ele>18</ele>
        <time>2015-03-02T08:58:02.000Z</time>
      </trkpt>
      <trkpt lat="46.22773" lon="-0.90699">
        <ele>18.200000762939</ele>
        <time>2015-03-02T08:58:16.000Z</time>
      </trkpt>
      <trkpt lat="46.22772" lon="-0.90726">
        <ele>18.60000038147</ele>
        <time>2015-03-02T08:58:30.000Z</time>
      </trkpt>
      <trkpt lat="46.22771" lon="-0.90752">
        <ele>18.799999237061</ele>
        <time>2015-03-02T08:58:43.000Z</time>
      </trkpt>
      <trkpt lat="46.22769" lon="-0.90778">
        <ele>19</ele>
        <time>2015-03-02T08:58:57.000Z</time>
      </trkpt>
      <trkpt lat="46.22767" lon="-0.90805">
        <ele>19</ele>
        <time>2015-03-02T08:59:11.000Z</time>
      </trkpt>
      <trkpt lat="46.22765" lon="-0.90832">
        <ele>18.60000038147</ele>
        <time>2015-03-02T08:59:25.000Z</time>
      </trkpt>
      <trkpt lat="46.22764" lon="-0.90859">
        <ele>18.39999961853</ele>
        <time>2015-03-02T08:59:40.000Z</time>
      </trkpt>
      <trkpt lat="46.22762" lon="-0.90885">
        <ele>18.39999961853</ele>
        <time>2015-03-02T08:59:54.000Z</time>
      </trkpt>
      <trkpt lat="46.2276" lon="-0.90912">
        <ele>18.39999961853</ele>
        <time>2015-03-02T09:00:08.000Z</time>
      </trkpt>
      <trkpt lat="46.22759" lon="-0.9094">
        <ele>18.39999961853</ele>
        <time>2015-03-02T09:00:22.000Z</time>
      </trkpt>
      <trkpt lat="46.22759" lon="-0.90966">
        <ele>18.39999961853</ele>
        <time>2015-03-02T09:00:37.000Z</time>
      </trkpt>
      <trkpt lat="46.22758" lon="-0.90993">
        <ele>18.200000762939</ele>
        <time>2015-03-02T09:00:51.000Z</time>
      </trkpt>
      <trkpt lat="46.22758" lon="-0.9102">
        <ele>17.799999237061</ele>
        <time>2015-03-02T09:01:05.000Z</time>
      </trkpt>
      <trkpt lat="46.22757" lon="-0.91046">
        <ele>17.60000038147</ele>
        <time>2015-03-02T09:01:19.000Z</time>
      </trkpt>
      <trkpt lat="46.22757" lon="-0.91072">
        <ele>17.60000038147</ele>
        <time>2015-03-02T09:01:33.000Z</time>
      </trkpt>
      <trkpt lat="46.22757" lon="-0.91099">
        <ele>17.60000038147</ele>
        <time>2015-03-02T09:01:47.000Z</time>
      </trkpt>
      <trkpt lat="46.22757" lon="-0.91125">
        <ele>17.60000038147</ele>
        <time>2015-03-02T09:02:00.000Z</time>
      </trkpt>
      <trkpt lat="46.22757" lon="-0.91151">
        <ele>17.39999961853</ele>
        <time>2015-03-02T09:02:15.000Z</time>
      </trkpt>
      <trkpt lat="46.22758" lon="-0.91179">
        <ele>17.799999237061</ele>
        <time>2015-03-02T09:02:29.000Z</time>
      </trkpt>
      <trkpt lat="46.22758" lon="-0.91205">
        <ele>18</ele>
        <time>2015-03-02T09:02:43.000Z</time>
      </trkpt>
      <trkpt lat="46.22759" lon="-0.91226">
        <ele>18</ele>
        <time>2015-03-02T09:02:55.000Z</time>
      </trkpt>
      <trkpt lat="46.22758" lon="-0.91236">
        <ele>18</ele>
        <time>2015-03-02T09:03:00.000Z</time>
      </trkpt>
      <trkpt lat="46.22757" lon="-0.91263">
        <ele>18</ele>
        <time>2015-03-02T09:03:15.000Z</time>
      </trkpt>
      <trkpt lat="46.22757" lon="-0.9129">
        <ele>18</ele>
        <time>2015-03-02T09:03:29.000Z</time>
      </trkpt>
      <trkpt lat="46.22757" lon="-0.91316">
        <ele>17.799999237061</ele>
        <time>2015-03-02T09:03:42.000Z</time>
      </trkpt>
      <trkpt lat="46.22758" lon="-0.91342">
        <ele>17.60000038147</ele>
        <time>2015-03-02T09:03:56.000Z</time>
      </trkpt>
      <trkpt lat="46.22758" lon="-0.9137">
        <ele>17.39999961853</ele>
        <time>2015-03-02T09:04:10.000Z</time>
      </trkpt>
      <trkpt lat="46.22757" lon="-0.91396">
        <ele>17.39999961853</ele>
        <time>2015-03-02T09:04:23.000Z</time>
      </trkpt>
      <trkpt lat="46.22757" lon="-0.91423">
        <ele>17.799999237061</ele>
        <time>2015-03-02T09:04:37.000Z</time>
      </trkpt>
      <trkpt lat="46.22755" lon="-0.91451">
        <ele>18</ele>
        <time>2015-03-02T09:04:51.000Z</time>
      </trkpt>
      <trkpt lat="46.22752" lon="-0.91477">
        <ele>17.60000038147</ele>
        <time>2015-03-02T09:05:04.000Z</time>
      </trkpt>
      <trkpt lat="46.2275" lon="-0.91504">
        <ele>17.39999961853</ele>
        <time>2015-03-02T09:05:18.000Z</time>
      </trkpt>
      <trkpt lat="46.22746" lon="-0.9153">
        <ele>17.200000762939</ele>
        <time>2015-03-02T09:05:30.000Z</time>
      </trkpt>
      <trkpt lat="46.22743" lon="-0.91557">
        <ele>16.60000038147</ele>
        <time>2015-03-02T09:05:44.000Z</time>
      </trkpt>
      <trkpt lat="46.22739" lon="-0.91584">
        <ele>17</ele>
        <time>2015-03-02T09:05:58.000Z</time>
      </trkpt>
      <trkpt lat="46.22736" lon="-0.9161">
        <ele>17.39999961853</ele>
        <time>2015-03-02T09:06:11.000Z</time>
      </trkpt>
      <trkpt lat="46.22733" lon="-0.91637">
        <ele>17.799999237061</ele>
        <time>2015-03-02T09:06:25.000Z</time>
      </trkpt>
      <trkpt lat="46.2273" lon="-0.91663">
        <ele>18</ele>
        <time>2015-03-02T09:06:38.000Z</time>
      </trkpt>
      <trkpt lat="46.22727" lon="-0.91688">
        <ele>18</ele>
        <time>2015-03-02T09:06:51.000Z</time>
      </trkpt>
      <trkpt lat="46.22724" lon="-0.91715">
        <ele>18</ele>
        <time>2015-03-02T09:07:05.000Z</time>
      </trkpt>
      <trkpt lat="46.22723" lon="-0.91741">
        <ele>17.799999237061</ele>
        <time>2015-03-02T09:07:18.000Z</time>
      </trkpt>
      <trkpt lat="46.22721" lon="-0.91767">
        <ele>17.60000038147</ele>
        <time>2015-03-02T09:07:31.000Z</time>
      </trkpt>
      <trkpt lat="46.22721" lon="-0.91794">
        <ele>17.200000762939</ele>
        <time>2015-03-02T09:07:45.000Z</time>
      </trkpt>
      <trkpt lat="46.22721" lon="-0.9182">
        <ele>16.799999237061</ele>
        <time>2015-03-02T09:07:59.000Z</time>
      </trkpt>
      <trkpt lat="46.22721" lon="-0.91847">
        <ele>16.60000038147</ele>
        <time>2015-03-02T09:08:12.000Z</time>
      </trkpt>
      <trkpt lat="46.22722" lon="-0.91874">
        <ele>16.200000762939</ele>
        <time>2015-03-02T09:08:26.000Z</time>
      </trkpt>
      <trkpt lat="46.22722" lon="-0.919">
        <ele>15.800000190735</ele>
        <time>2015-03-02T09:08:39.000Z</time>
      </trkpt>
      <trkpt lat="46.2272" lon="-0.91927">
        <ele>15.60000038147</ele>
        <time>2015-03-02T09:08:53.000Z</time>
      </trkpt>
      <trkpt lat="46.22715" lon="-0.91952">
        <ele>15.199999809265</ele>
        <time>2015-03-02T09:09:05.000Z</time>
      </trkpt>
      <trkpt lat="46.22711" lon="-0.91979">
        <ele>15</ele>
        <time>2015-03-02T09:09:19.000Z</time>
      </trkpt>
      <trkpt lat="46.22707" lon="-0.92005">
        <ele>14.800000190735</ele>
        <time>2015-03-02T09:09:39.000Z</time>
      </trkpt>
      <trkpt lat="46.22706" lon="-0.92008">
        <ele>14.800000190735</ele>
        <time>2015-03-02T09:09:41.000Z</time>
      </trkpt>
      <trkpt lat="46.22703" lon="-0.9202">
        <ele>14.800000190735</ele>
        <time>2015-03-02T09:09:56.000Z</time>
      </trkpt>
      <trkpt lat="46.22692" lon="-0.92068">
        <ele>14.39999961853</ele>
        <time>2015-03-02T09:14:21.000Z</time>
      </trkpt>
      <trkpt lat="46.22691" lon="-0.9207">
        <ele>14.199999809265</ele>
        <time>2015-03-02T09:14:22.000Z</time>
      </trkpt>
      <trkpt lat="46.22689" lon="-0.92096">
        <ele>14</ele>
        <time>2015-03-02T09:14:35.000Z</time>
      </trkpt>
      <trkpt lat="46.22692" lon="-0.92123">
        <ele>14</ele>
        <time>2015-03-02T09:14:48.000Z</time>
      </trkpt>
      <trkpt lat="46.22698" lon="-0.92149">
        <ele>13.800000190735</ele>
        <time>2015-03-02T09:15:02.000Z</time>
      </trkpt>
      <trkpt lat="46.22705" lon="-0.92174">
        <ele>13.39999961853</ele>
        <time>2015-03-02T09:15:16.000Z</time>
      </trkpt>
      <trkpt lat="46.22711" lon="-0.92198">
        <ele>12.800000190735</ele>
        <time>2015-03-02T09:15:29.000Z</time>
      </trkpt>
      <trkpt lat="46.22719" lon="-0.92223">
        <ele>12.199999809265</ele>
        <time>2015-03-02T09:15:43.000Z</time>
      </trkpt>
      <trkpt lat="46.22727" lon="-0.92249">
        <ele>11.39999961853</ele>
        <time>2015-03-02T09:15:57.000Z</time>
      </trkpt>
      <trkpt lat="46.22733" lon="-0.92273">
        <ele>10.60000038147</ele>
        <time>2015-03-02T09:16:10.000Z</time>
      </trkpt>
      <trkpt lat="46.22739" lon="-0.92298">
        <ele>9.8000001907349</ele>
        <time>2015-03-02T09:16:23.000Z</time>
      </trkpt>
      <trkpt lat="46.22742" lon="-0.92325">
        <ele>9.8000001907349</ele>
        <time>2015-03-02T09:16:36.000Z</time>
      </trkpt>
      <trkpt lat="46.22748" lon="-0.92352">
        <ele>9.8000001907349</ele>
        <time>2015-03-02T09:16:49.000Z</time>
      </trkpt>
      <trkpt lat="46.22757" lon="-0.92376">
        <ele>9.6000003814697</ele>
        <time>2015-03-02T09:17:03.000Z</time>
      </trkpt>
      <trkpt lat="46.22767" lon="-0.92398">
        <ele>9.6000003814697</ele>
        <time>2015-03-02T09:17:17.000Z</time>
      </trkpt>
      <trkpt lat="46.2277" lon="-0.92403">
        <ele>9.6000003814697</ele>
        <time>2015-03-02T09:17:20.000Z</time>
      </trkpt>
      <trkpt lat="46.22781" lon="-0.92407">
        <ele>9.6000003814697</ele>
        <time>2015-03-02T09:17:27.000Z</time>
      </trkpt>
      <trkpt lat="46.22799" lon="-0.92403">
        <ele>9.1999998092651</ele>
        <time>2015-03-02T09:17:41.000Z</time>
      </trkpt>
      <trkpt lat="46.22809" lon="-0.92379">
        <ele>9</ele>
        <time>2015-03-02T09:17:54.000Z</time>
      </trkpt>
      <trkpt lat="46.22811" lon="-0.92352">
        <ele>9</ele>
        <time>2015-03-02T09:18:07.000Z</time>
      </trkpt>
      <trkpt lat="46.22812" lon="-0.92346">
        <ele>9</ele>
        <time>2015-03-02T09:18:10.000Z</time>
      </trkpt>
      <trkpt lat="46.22825" lon="-0.92342">
        <ele>8.8000001907349</ele>
        <time>2015-03-02T09:18:21.000Z</time>
      </trkpt>
      <trkpt lat="46.22843" lon="-0.92346">
        <ele>8.1999998092651</ele>
        <time>2015-03-02T09:18:35.000Z</time>
      </trkpt>
      <trkpt lat="46.22862" lon="-0.92349">
        <ele>7.8000001907349</ele>
        <time>2015-03-02T09:18:49.000Z</time>
      </trkpt>
      <trkpt lat="46.22881" lon="-0.92353">
        <ele>7.4000000953674</ele>
        <time>2015-03-02T09:19:03.000Z</time>
      </trkpt>
      <trkpt lat="46.22898" lon="-0.9236">
        <ele>7</ele>
        <time>2015-03-02T09:19:17.000Z</time>
      </trkpt>
      <trkpt lat="46.229" lon="-0.9236">
        <ele>7.1999998092651</ele>
        <time>2015-03-02T09:19:19.000Z</time>
      </trkpt>
      <trkpt lat="46.22916" lon="-0.92358">
        <ele>7.4000000953674</ele>
        <time>2015-03-02T09:19:42.000Z</time>
      </trkpt>
      <trkpt lat="46.22921" lon="-0.92358">
        <ele>7.5999999046326</ele>
        <time>2015-03-02T09:19:47.000Z</time>
      </trkpt>
      <trkpt lat="46.22922" lon="-0.92358">
        <ele>7.5999999046326</ele>
        <time>2015-03-02T09:19:48.000Z</time>
      </trkpt>
      <trkpt lat="46.22932" lon="-0.92355">
        <ele>7.8000001907349</ele>
        <time>2015-03-02T09:19:56.000Z</time>
      </trkpt>
      <trkpt lat="46.2295" lon="-0.92356">
        <ele>7.5999999046326</ele>
        <time>2015-03-02T09:20:10.000Z</time>
      </trkpt>
      <trkpt lat="46.22967" lon="-0.92371">
        <ele>6.8000001907349</ele>
        <time>2015-03-02T09:20:24.000Z</time>
      </trkpt>
      <trkpt lat="46.22973" lon="-0.92395">
        <ele>6</ele>
        <time>2015-03-02T09:20:37.000Z</time>
      </trkpt>
      <trkpt lat="46.22978" lon="-0.92421">
        <ele>5.5999999046326</ele>
        <time>2015-03-02T09:20:52.000Z</time>
      </trkpt>
      <trkpt lat="46.22985" lon="-0.92446">
        <ele>5.4000000953674</ele>
        <time>2015-03-02T09:21:08.000Z</time>
      </trkpt>
      <trkpt lat="46.23" lon="-0.9246">
        <ele>5.5999999046326</ele>
        <time>2015-03-02T09:21:21.000Z</time>
      </trkpt>
      <trkpt lat="46.23019" lon="-0.92462">
        <ele>6</ele>
        <time>2015-03-02T09:21:34.000Z</time>
      </trkpt>
      <trkpt lat="46.23038" lon="-0.92459">
        <ele>6.4000000953674</ele>
        <time>2015-03-02T09:21:48.000Z</time>
      </trkpt>
      <trkpt lat="46.23056" lon="-0.92455">
        <ele>6.8000001907349</ele>
        <time>2015-03-02T09:22:02.000Z</time>
      </trkpt>
      <trkpt lat="46.23074" lon="-0.92446">
        <ele>7.1999998092651</ele>
        <time>2015-03-02T09:22:16.000Z</time>
      </trkpt>
      <trkpt lat="46.23091" lon="-0.92437">
        <ele>7.5999999046326</ele>
        <time>2015-03-02T09:22:28.000Z</time>
      </trkpt>
      <trkpt lat="46.23109" lon="-0.92426">
        <ele>8.1999998092651</ele>
        <time>2015-03-02T09:22:41.000Z</time>
      </trkpt>
      <trkpt lat="46.23126" lon="-0.92416">
        <ele>8.3999996185303</ele>
        <time>2015-03-02T09:22:53.000Z</time>
      </trkpt>
      <trkpt lat="46.23144" lon="-0.92408">
        <ele>8.8000001907349</ele>
        <time>2015-03-02T09:23:05.000Z</time>
      </trkpt>
      <trkpt lat="46.23162" lon="-0.924">
        <ele>8.6000003814697</ele>
        <time>2015-03-02T09:23:19.000Z</time>
      </trkpt>
      <trkpt lat="46.2318" lon="-0.92397">
        <ele>8.6000003814697</ele>
        <time>2015-03-02T09:23:32.000Z</time>
      </trkpt>
      <trkpt lat="46.23198" lon="-0.92394">
        <ele>8.3999996185303</ele>
        <time>2015-03-02T09:23:44.000Z</time>
      </trkpt>
      <trkpt lat="46.23217" lon="-0.92393">
        <ele>8.1999998092651</ele>
        <time>2015-03-02T09:23:57.000Z</time>
      </trkpt>
      <trkpt lat="46.23236" lon="-0.92393">
        <ele>8</ele>
        <time>2015-03-02T09:24:11.000Z</time>
      </trkpt>
      <trkpt lat="46.23254" lon="-0.92389">
        <ele>8.1999998092651</ele>
        <time>2015-03-02T09:24:27.000Z</time>
      </trkpt>
      <trkpt lat="46.23272" lon="-0.92385">
        <ele>8.6000003814697</ele>
        <time>2015-03-02T09:24:44.000Z</time>
      </trkpt>
      <trkpt lat="46.23289" lon="-0.9238">
        <ele>8.8000001907349</ele>
        <time>2015-03-02T09:24:58.000Z</time>
      </trkpt>
      <trkpt lat="46.23294" lon="-0.92379">
        <ele>8.8000001907349</ele>
        <time>2015-03-02T09:25:02.000Z</time>
      </trkpt>
      <trkpt lat="46.233" lon="-0.92378">
        <ele>8.8000001907349</ele>
        <time>2015-03-02T09:25:07.000Z</time>
      </trkpt>
      <trkpt lat="46.23318" lon="-0.92374">
        <ele>9</ele>
        <time>2015-03-02T09:25:23.000Z</time>
      </trkpt>
      <trkpt lat="46.23336" lon="-0.92366">
        <ele>9.1999998092651</ele>
        <time>2015-03-02T09:25:37.000Z</time>
      </trkpt>
      <trkpt lat="46.23354" lon="-0.9236">
        <ele>9.3999996185303</ele>
        <time>2015-03-02T09:25:50.000Z</time>
      </trkpt>
      <trkpt lat="46.23373" lon="-0.92354">
        <ele>9.3999996185303</ele>
        <time>2015-03-02T09:26:04.000Z</time>
      </trkpt>
      <trkpt lat="46.2339" lon="-0.92344">
        <ele>9.6000003814697</ele>
        <time>2015-03-02T09:26:18.000Z</time>
      </trkpt>
      <trkpt lat="46.23408" lon="-0.92335">
        <ele>9.6000003814697</ele>
        <time>2015-03-02T09:26:32.000Z</time>
      </trkpt>
      <trkpt lat="46.23426" lon="-0.92324">
        <ele>9.3999996185303</ele>
        <time>2015-03-02T09:26:46.000Z</time>
      </trkpt>
      <trkpt lat="46.23444" lon="-0.92316">
        <ele>9.3999996185303</ele>
        <time>2015-03-02T09:27:00.000Z</time>
      </trkpt>
      <trkpt lat="46.23462" lon="-0.92306">
        <ele>9.1999998092651</ele>
        <time>2015-03-02T09:27:14.000Z</time>
      </trkpt>
      <trkpt lat="46.2348" lon="-0.92296">
        <ele>9</ele>
        <time>2015-03-02T09:27:28.000Z</time>
      </trkpt>
      <trkpt lat="46.23499" lon="-0.92289">
        <ele>9</ele>
        <time>2015-03-02T09:27:42.000Z</time>
      </trkpt>
      <trkpt lat="46.23517" lon="-0.92281">
        <ele>8.8000001907349</ele>
        <time>2015-03-02T09:27:56.000Z</time>
      </trkpt>
      <trkpt lat="46.23534" lon="-0.92273">
        <ele>8.8000001907349</ele>
        <time>2015-03-02T09:28:09.000Z</time>
      </trkpt>
      <trkpt lat="46.23551" lon="-0.92264">
        <ele>8.6000003814697</ele>
        <time>2015-03-02T09:28:22.000Z</time>
      </trkpt>
      <trkpt lat="46.23569" lon="-0.92257">
        <ele>8.6000003814697</ele>
        <time>2015-03-02T09:28:34.000Z</time>
      </trkpt>
      <trkpt lat="46.23587" lon="-0.92253">
        <ele>8.6000003814697</ele>
        <time>2015-03-02T09:28:47.000Z</time>
      </trkpt>
      <trkpt lat="46.23605" lon="-0.92245">
        <ele>8.8000001907349</ele>
        <time>2015-03-02T09:29:01.000Z</time>
      </trkpt>
      <trkpt lat="46.23622" lon="-0.92235">
        <ele>8.8000001907349</ele>
        <time>2015-03-02T09:29:14.000Z</time>
      </trkpt>
      <trkpt lat="46.2364" lon="-0.92226">
        <ele>9</ele>
        <time>2015-03-02T09:29:28.000Z</time>
      </trkpt>
      <trkpt lat="46.23658" lon="-0.92218">
        <ele>9</ele>
        <time>2015-03-02T09:29:41.000Z</time>
      </trkpt>
      <trkpt lat="46.23675" lon="-0.92207">
        <ele>9.1999998092651</ele>
        <time>2015-03-02T09:29:55.000Z</time>
      </trkpt>
      <trkpt lat="46.23693" lon="-0.92196">
        <ele>9.3999996185303</ele>
        <time>2015-03-02T09:30:09.000Z</time>
      </trkpt>
      <trkpt lat="46.2371" lon="-0.92186">
        <ele>9.3999996185303</ele>
        <time>2015-03-02T09:30:23.000Z</time>
      </trkpt>
      <trkpt lat="46.23727" lon="-0.92174">
        <ele>9.6000003814697</ele>
        <time>2015-03-02T09:30:37.000Z</time>
      </trkpt>
      <trkpt lat="46.23744" lon="-0.92162">
        <ele>9.6000003814697</ele>
        <time>2015-03-02T09:30:51.000Z</time>
      </trkpt>
      <trkpt lat="46.23761" lon="-0.92151">
        <ele>9.3999996185303</ele>
        <time>2015-03-02T09:31:06.000Z</time>
      </trkpt>
      <trkpt lat="46.23778" lon="-0.92138">
        <ele>9.3999996185303</ele>
        <time>2015-03-02T09:31:20.000Z</time>
      </trkpt>
      <trkpt lat="46.23795" lon="-0.92127">
        <ele>9.3999996185303</ele>
        <time>2015-03-02T09:31:33.000Z</time>
      </trkpt>
      <trkpt lat="46.23812" lon="-0.92116">
        <ele>9.3999996185303</ele>
        <time>2015-03-02T09:31:46.000Z</time>
      </trkpt>
      <trkpt lat="46.23828" lon="-0.92103">
        <ele>9.6000003814697</ele>
        <time>2015-03-02T09:31:59.000Z</time>
      </trkpt>
      <trkpt lat="46.23844" lon="-0.92089">
        <ele>10</ele>
        <time>2015-03-02T09:32:13.000Z</time>
      </trkpt>
      <trkpt lat="46.23859" lon="-0.92074">
        <ele>10.39999961853</ele>
        <time>2015-03-02T09:32:26.000Z</time>
      </trkpt>
      <trkpt lat="46.23875" lon="-0.92059">
        <ele>10.800000190735</ele>
        <time>2015-03-02T09:32:39.000Z</time>
      </trkpt>
      <trkpt lat="46.2389" lon="-0.92043">
        <ele>11</ele>
        <time>2015-03-02T09:32:52.000Z</time>
      </trkpt>
      <trkpt lat="46.23905" lon="-0.92027">
        <ele>11</ele>
        <time>2015-03-02T09:33:06.000Z</time>
      </trkpt>
      <trkpt lat="46.23916" lon="-0.9202">
        <ele>11</ele>
        <time>2015-03-02T09:33:19.000Z</time>
      </trkpt>
      <trkpt lat="46.23925" lon="-0.9201">
        <ele>11</ele>
        <time>2015-03-02T09:33:35.000Z</time>
      </trkpt>
      <trkpt lat="46.23927" lon="-0.92008">
        <ele>11</ele>
        <time>2015-03-02T09:33:36.000Z</time>
      </trkpt>
      <trkpt lat="46.23941" lon="-0.91991">
        <ele>11</ele>
        <time>2015-03-02T09:33:49.000Z</time>
      </trkpt>
      <trkpt lat="46.23954" lon="-0.91971">
        <ele>11</ele>
        <time>2015-03-02T09:34:03.000Z</time>
      </trkpt>
      <trkpt lat="46.23968" lon="-0.91953">
        <ele>11.199999809265</ele>
        <time>2015-03-02T09:34:16.000Z</time>
      </trkpt>
      <trkpt lat="46.23981" lon="-0.91935">
        <ele>11.39999961853</ele>
        <time>2015-03-02T09:34:29.000Z</time>
      </trkpt>
      <trkpt lat="46.23995" lon="-0.91918">
        <ele>11.800000190735</ele>
        <time>2015-03-02T09:34:42.000Z</time>
      </trkpt>
      <trkpt lat="46.2401" lon="-0.91903">
        <ele>12.199999809265</ele>
        <time>2015-03-02T09:34:55.000Z</time>
      </trkpt>
      <trkpt lat="46.24026" lon="-0.91891">
        <ele>12.60000038147</ele>
        <time>2015-03-02T09:35:09.000Z</time>
      </trkpt>
      <trkpt lat="46.24044" lon="-0.91885">
        <ele>12.800000190735</ele>
        <time>2015-03-02T09:35:21.000Z</time>
      </trkpt>
      <trkpt lat="46.24062" lon="-0.91879">
        <ele>13.199999809265</ele>
        <time>2015-03-02T09:35:35.000Z</time>
      </trkpt>
      <trkpt lat="46.2408" lon="-0.91876">
        <ele>12.800000190735</ele>
        <time>2015-03-02T09:35:48.000Z</time>
      </trkpt>
      <trkpt lat="46.24099" lon="-0.91875">
        <ele>12.60000038147</ele>
        <time>2015-03-02T09:36:02.000Z</time>
      </trkpt>
      <trkpt lat="46.24118" lon="-0.91877">
        <ele>12.39999961853</ele>
        <time>2015-03-02T09:36:16.000Z</time>
      </trkpt>
      <trkpt lat="46.24136" lon="-0.91879">
        <ele>12.199999809265</ele>
        <time>2015-03-02T09:36:30.000Z</time>
      </trkpt>
      <trkpt lat="46.24155" lon="-0.91883">
        <ele>12</ele>
        <time>2015-03-02T09:36:43.000Z</time>
      </trkpt>
      <trkpt lat="46.24174" lon="-0.91885">
        <ele>12</ele>
        <time>2015-03-02T09:36:56.000Z</time>
      </trkpt>
      <trkpt lat="46.24193" lon="-0.91885">
        <ele>12</ele>
        <time>2015-03-02T09:37:09.000Z</time>
      </trkpt>
      <trkpt lat="46.24212" lon="-0.91883">
        <ele>12</ele>
        <time>2015-03-02T09:37:23.000Z</time>
      </trkpt>
      <trkpt lat="46.24231" lon="-0.91878">
        <ele>12.199999809265</ele>
        <time>2015-03-02T09:37:35.000Z</time>
      </trkpt>
      <trkpt lat="46.24248" lon="-0.91872">
        <ele>12.39999961853</ele>
        <time>2015-03-02T09:37:47.000Z</time>
      </trkpt>
      <trkpt lat="46.24265" lon="-0.91862">
        <ele>12.60000038147</ele>
        <time>2015-03-02T09:37:59.000Z</time>
      </trkpt>
      <trkpt lat="46.24283" lon="-0.91854">
        <ele>12.800000190735</ele>
        <time>2015-03-02T09:38:12.000Z</time>
      </trkpt>
      <trkpt lat="46.24301" lon="-0.91844">
        <ele>13.199999809265</ele>
        <time>2015-03-02T09:38:24.000Z</time>
      </trkpt>
      <trkpt lat="46.24317" lon="-0.91832">
        <ele>13.39999961853</ele>
        <time>2015-03-02T09:38:37.000Z</time>
      </trkpt>
      <trkpt lat="46.24334" lon="-0.91818">
        <ele>13.800000190735</ele>
        <time>2015-03-02T09:38:50.000Z</time>
      </trkpt>
      <trkpt lat="46.24349" lon="-0.91803">
        <ele>14</ele>
        <time>2015-03-02T09:39:04.000Z</time>
      </trkpt>
      <trkpt lat="46.24364" lon="-0.91788">
        <ele>14</ele>
        <time>2015-03-02T09:39:17.000Z</time>
      </trkpt>
      <trkpt lat="46.24381" lon="-0.91776">
        <ele>14</ele>
        <time>2015-03-02T09:39:30.000Z</time>
      </trkpt>
      <trkpt lat="46.24398" lon="-0.91764">
        <ele>14</ele>
        <time>2015-03-02T09:39:43.000Z</time>
      </trkpt>
      <trkpt lat="46.24415" lon="-0.9175">
        <ele>13.60000038147</ele>
        <time>2015-03-02T09:39:56.000Z</time>
      </trkpt>
      <trkpt lat="46.24431" lon="-0.91739">
        <ele>13.199999809265</ele>
        <time>2015-03-02T09:40:08.000Z</time>
      </trkpt>
      <trkpt lat="46.24447" lon="-0.91727">
        <ele>12.800000190735</ele>
        <time>2015-03-02T09:40:21.000Z</time>
      </trkpt>
      <trkpt lat="46.24464" lon="-0.91715">
        <ele>12.39999961853</ele>
        <time>2015-03-02T09:40:34.000Z</time>
      </trkpt>
      <trkpt lat="46.2448" lon="-0.91704">
        <ele>12</ele>
        <time>2015-03-02T09:40:46.000Z</time>
      </trkpt>
      <trkpt lat="46.24497" lon="-0.91691">
        <ele>11.199999809265</ele>
        <time>2015-03-02T09:41:00.000Z</time>
      </trkpt>
      <trkpt lat="46.24512" lon="-0.91676">
        <ele>10.39999961853</ele>
        <time>2015-03-02T09:41:12.000Z</time>
      </trkpt>
      <trkpt lat="46.24527" lon="-0.91659">
        <ele>9.8000001907349</ele>
        <time>2015-03-02T09:41:24.000Z</time>
      </trkpt>
      <trkpt lat="46.2454" lon="-0.91639">
        <ele>9.1999998092651</ele>
        <time>2015-03-02T09:41:37.000Z</time>
      </trkpt>
      <trkpt lat="46.24552" lon="-0.91617">
        <ele>9</ele>
        <time>2015-03-02T09:41:50.000Z</time>
      </trkpt>
      <trkpt lat="46.24562" lon="-0.91596">
        <ele>9</ele>
        <time>2015-03-02T09:42:02.000Z</time>
      </trkpt>
      <trkpt lat="46.24574" lon="-0.91574">
        <ele>9.3999996185303</ele>
        <time>2015-03-02T09:42:15.000Z</time>
      </trkpt>
      <trkpt lat="46.24587" lon="-0.91555">
        <ele>9.3999996185303</ele>
        <time>2015-03-02T09:42:28.000Z</time>
      </trkpt>
      <trkpt lat="46.24599" lon="-0.91533">
        <ele>9.1999998092651</ele>
        <time>2015-03-02T09:42:41.000Z</time>
      </trkpt>
      <trkpt lat="46.2461" lon="-0.91512">
        <ele>8.8000001907349</ele>
        <time>2015-03-02T09:42:53.000Z</time>
      </trkpt>
      <trkpt lat="46.24623" lon="-0.91492">
        <ele>8.6000003814697</ele>
        <time>2015-03-02T09:43:06.000Z</time>
      </trkpt>
      <trkpt lat="46.24633" lon="-0.9147">
        <ele>8.3999996185303</ele>
        <time>2015-03-02T09:43:19.000Z</time>
      </trkpt>
      <trkpt lat="46.24644" lon="-0.91448">
        <ele>8.3999996185303</ele>
        <time>2015-03-02T09:43:32.000Z</time>
      </trkpt>
      <trkpt lat="46.24654" lon="-0.91426">
        <ele>8.6000003814697</ele>
        <time>2015-03-02T09:43:46.000Z</time>
      </trkpt>
      <trkpt lat="46.24664" lon="-0.91403">
        <ele>8.8000001907349</ele>
        <time>2015-03-02T09:43:59.000Z</time>
      </trkpt>
      <trkpt lat="46.24678" lon="-0.91384">
        <ele>9</ele>
        <time>2015-03-02T09:44:13.000Z</time>
      </trkpt>
      <trkpt lat="46.2469" lon="-0.91364">
        <ele>9</ele>
        <time>2015-03-02T09:44:27.000Z</time>
      </trkpt>
      <trkpt lat="46.24703" lon="-0.91343">
        <ele>9</ele>
        <time>2015-03-02T09:44:40.000Z</time>
      </trkpt>
      <trkpt lat="46.24716" lon="-0.91325">
        <ele>9</ele>
        <time>2015-03-02T09:44:53.000Z</time>
      </trkpt>
      <trkpt lat="46.2473" lon="-0.91307">
        <ele>9</ele>
        <time>2015-03-02T09:45:06.000Z</time>
      </trkpt>
      <trkpt lat="46.24741" lon="-0.91286">
        <ele>9.1999998092651</ele>
        <time>2015-03-02T09:45:20.000Z</time>
      </trkpt>
      <trkpt lat="46.24755" lon="-0.91268">
        <ele>9.3999996185303</ele>
        <time>2015-03-02T09:45:34.000Z</time>
      </trkpt>
      <trkpt lat="46.24766" lon="-0.91246">
        <ele>9.8000001907349</ele>
        <time>2015-03-02T09:45:48.000Z</time>
      </trkpt>
      <trkpt lat="46.24777" lon="-0.91225">
        <ele>10</ele>
        <time>2015-03-02T09:46:02.000Z</time>
      </trkpt>
      <trkpt lat="46.24787" lon="-0.91201">
        <ele>10</ele>
        <time>2015-03-02T09:46:16.000Z</time>
      </trkpt>
      <trkpt lat="46.24792" lon="-0.91194">
        <ele>10</ele>
        <time>2015-03-02T09:46:21.000Z</time>
      </trkpt>
      <trkpt lat="46.24803" lon="-0.91174">
        <ele>10</ele>
        <time>2015-03-02T09:46:34.000Z</time>
      </trkpt>
      <trkpt lat="46.24816" lon="-0.91154">
        <ele>10</ele>
        <time>2015-03-02T09:46:48.000Z</time>
      </trkpt>
      <trkpt lat="46.24819" lon="-0.91147">
        <ele>10</ele>
        <time>2015-03-02T09:46:52.000Z</time>
      </trkpt>
      <trkpt lat="46.24829" lon="-0.91124">
        <ele>10.39999961853</ele>
        <time>2015-03-02T09:47:06.000Z</time>
      </trkpt>
      <trkpt lat="46.24844" lon="-0.91108">
        <ele>10.800000190735</ele>
        <time>2015-03-02T09:47:19.000Z</time>
      </trkpt>
      <trkpt lat="46.24859" lon="-0.9109">
        <ele>11.199999809265</ele>
        <time>2015-03-02T09:47:32.000Z</time>
      </trkpt>
      <trkpt lat="46.24872" lon="-0.91069">
        <ele>11.60000038147</ele>
        <time>2015-03-02T09:47:45.000Z</time>
      </trkpt>
      <trkpt lat="46.24882" lon="-0.91047">
        <ele>11.800000190735</ele>
        <time>2015-03-02T09:47:58.000Z</time>
      </trkpt>
      <trkpt lat="46.24891" lon="-0.91024">
        <ele>12</ele>
        <time>2015-03-02T09:48:11.000Z</time>
      </trkpt>
      <trkpt lat="46.24892" lon="-0.91022">
        <ele>12</ele>
        <time>2015-03-02T09:48:12.000Z</time>
      </trkpt>
      <trkpt lat="46.24899" lon="-0.91007">
        <ele>12</ele>
        <time>2015-03-02T09:48:21.000Z</time>
      </trkpt>
      <trkpt lat="46.2491" lon="-0.90984">
        <ele>11.60000038147</ele>
        <time>2015-03-02T09:48:34.000Z</time>
      </trkpt>
      <trkpt lat="46.24917" lon="-0.90959">
        <ele>11.60000038147</ele>
        <time>2015-03-02T09:48:47.000Z</time>
      </trkpt>
      <trkpt lat="46.24929" lon="-0.90937">
        <ele>11.60000038147</ele>
        <time>2015-03-02T09:49:00.000Z</time>
      </trkpt>
      <trkpt lat="46.24934" lon="-0.9093">
        <ele>11.60000038147</ele>
        <time>2015-03-02T09:49:06.000Z</time>
      </trkpt>
      <trkpt lat="46.24947" lon="-0.90911">
        <ele>11.39999961853</ele>
        <time>2015-03-02T09:49:27.000Z</time>
      </trkpt>
      <trkpt lat="46.24959" lon="-0.9089">
        <ele>11.199999809265</ele>
        <time>2015-03-02T09:49:43.000Z</time>
      </trkpt>
      <trkpt lat="46.24959" lon="-0.90888">
        <ele>11.199999809265</ele>
        <time>2015-03-02T09:49:49.000Z</time>
      </trkpt>
      <trkpt lat="46.24962" lon="-0.90879">
        <ele>11.39999961853</ele>
        <time>2015-03-02T09:53:57.000Z</time>
      </trkpt>
      <trkpt lat="46.24963" lon="-0.90878">
        <ele>11.39999961853</ele>
        <time>2015-03-02T09:53:58.000Z</time>
      </trkpt>
      <trkpt lat="46.24974" lon="-0.90866">
        <ele>11.60000038147</ele>
        <time>2015-03-02T09:54:08.000Z</time>
      </trkpt>
      <trkpt lat="46.24987" lon="-0.90848">
        <ele>11.800000190735</ele>
        <time>2015-03-02T09:54:21.000Z</time>
      </trkpt>
      <trkpt lat="46.24994" lon="-0.90824">
        <ele>12</ele>
        <time>2015-03-02T09:54:34.000Z</time>
      </trkpt>
      <trkpt lat="46.24996" lon="-0.90814">
        <ele>12.199999809265</ele>
        <time>2015-03-02T09:54:39.000Z</time>
      </trkpt>
      <trkpt lat="46.24995" lon="-0.90787">
        <ele>12.199999809265</ele>
        <time>2015-03-02T09:54:52.000Z</time>
      </trkpt>
      <trkpt lat="46.24995" lon="-0.9076">
        <ele>12.199999809265</ele>
        <time>2015-03-02T09:55:06.000Z</time>
      </trkpt>
      <trkpt lat="46.24993" lon="-0.90732">
        <ele>12.39999961853</ele>
        <time>2015-03-02T09:55:20.000Z</time>
      </trkpt>
      <trkpt lat="46.24995" lon="-0.90706">
        <ele>12.199999809265</ele>
        <time>2015-03-02T09:55:34.000Z</time>
      </trkpt>
      <trkpt lat="46.24998" lon="-0.9068">
        <ele>12</ele>
        <time>2015-03-02T09:55:49.000Z</time>
      </trkpt>
      <trkpt lat="46.25008" lon="-0.9067">
        <ele>11.60000038147</ele>
        <time>2015-03-02T09:55:59.000Z</time>
      </trkpt>
      <trkpt lat="46.2501" lon="-0.90667">
        <ele>11.60000038147</ele>
        <time>2015-03-02T09:56:01.000Z</time>
      </trkpt>
      <trkpt lat="46.25011" lon="-0.90658">
        <ele>11.39999961853</ele>
        <time>2015-03-02T09:56:05.000Z</time>
      </trkpt>
      <trkpt lat="46.25009" lon="-0.90632">
        <ele>11.60000038147</ele>
        <time>2015-03-02T09:56:18.000Z</time>
      </trkpt>
      <trkpt lat="46.25007" lon="-0.90605">
        <ele>11.60000038147</ele>
        <time>2015-03-02T09:56:31.000Z</time>
      </trkpt>
      <trkpt lat="46.25006" lon="-0.90579">
        <ele>11.39999961853</ele>
        <time>2015-03-02T09:56:45.000Z</time>
      </trkpt>
      <trkpt lat="46.25006" lon="-0.90553">
        <ele>11</ele>
        <time>2015-03-02T09:56:58.000Z</time>
      </trkpt>
      <trkpt lat="46.25005" lon="-0.90527">
        <ele>11</ele>
        <time>2015-03-02T09:57:11.000Z</time>
      </trkpt>
      <trkpt lat="46.25003" lon="-0.90501">
        <ele>11.199999809265</ele>
        <time>2015-03-02T09:57:24.000Z</time>
      </trkpt>
      <trkpt lat="46.25003" lon="-0.90473">
        <ele>11.199999809265</ele>
        <time>2015-03-02T09:57:37.000Z</time>
      </trkpt>
      <trkpt lat="46.25003" lon="-0.90446">
        <ele>10.800000190735</ele>
        <time>2015-03-02T09:57:50.000Z</time>
      </trkpt>
      <trkpt lat="46.25003" lon="-0.9042">
        <ele>11.199999809265</ele>
        <time>2015-03-02T09:58:02.000Z</time>
      </trkpt>
      <trkpt lat="46.25001" lon="-0.90394">
        <ele>11.60000038147</ele>
        <time>2015-03-02T09:58:15.000Z</time>
      </trkpt>
      <trkpt lat="46.25001" lon="-0.90367">
        <ele>11.60000038147</ele>
        <time>2015-03-02T09:58:29.000Z</time>
      </trkpt>
      <trkpt lat="46.25002" lon="-0.9034">
        <ele>11</ele>
        <time>2015-03-02T09:58:42.000Z</time>
      </trkpt>
      <trkpt lat="46.25002" lon="-0.90314">
        <ele>10.39999961853</ele>
        <time>2015-03-02T09:58:57.000Z</time>
      </trkpt>
      <trkpt lat="46.25002" lon="-0.90287">
        <ele>10</ele>
        <time>2015-03-02T09:59:12.000Z</time>
      </trkpt>
      <trkpt lat="46.25003" lon="-0.9026">
        <ele>9.8000001907349</ele>
        <time>2015-03-02T09:59:26.000Z</time>
      </trkpt>
      <trkpt lat="46.25005" lon="-0.90233">
        <ele>9.8000001907349</ele>
        <time>2015-03-02T09:59:40.000Z</time>
      </trkpt>
      <trkpt lat="46.25005" lon="-0.90207">
        <ele>9.8000001907349</ele>
        <time>2015-03-02T09:59:53.000Z</time>
      </trkpt>
      <trkpt lat="46.25005" lon="-0.90181">
        <ele>9.6000003814697</ele>
        <time>2015-03-02T10:00:07.000Z</time>
      </trkpt>
      <trkpt lat="46.25007" lon="-0.90154">
        <ele>9.1999998092651</ele>
        <time>2015-03-02T10:00:20.000Z</time>
      </trkpt>
      <trkpt lat="46.25008" lon="-0.90128">
        <ele>8.8000001907349</ele>
        <time>2015-03-02T10:00:33.000Z</time>
      </trkpt>
      <trkpt lat="46.25009" lon="-0.901">
        <ele>8.3999996185303</ele>
        <time>2015-03-02T10:00:46.000Z</time>
      </trkpt>
      <trkpt lat="46.25009" lon="-0.90074">
        <ele>8.1999998092651</ele>
        <time>2015-03-02T10:00:59.000Z</time>
      </trkpt>
      <trkpt lat="46.25008" lon="-0.90046">
        <ele>7.8000001907349</ele>
        <time>2015-03-02T10:01:12.000Z</time>
      </trkpt>
      <trkpt lat="46.25007" lon="-0.90019">
        <ele>7.8000001907349</ele>
        <time>2015-03-02T10:01:25.000Z</time>
      </trkpt>
      <trkpt lat="46.25008" lon="-0.89992">
        <ele>8</ele>
        <time>2015-03-02T10:01:38.000Z</time>
      </trkpt>
      <trkpt lat="46.25007" lon="-0.89968">
        <ele>8.3999996185303</ele>
        <time>2015-03-02T10:01:51.000Z</time>
      </trkpt>
      <trkpt lat="46.25005" lon="-0.89941">
        <ele>8.1999998092651</ele>
        <time>2015-03-02T10:02:05.000Z</time>
      </trkpt>
      <trkpt lat="46.25002" lon="-0.89913">
        <ele>7.8000001907349</ele>
        <time>2015-03-02T10:02:19.000Z</time>
      </trkpt>
      <trkpt lat="46.25002" lon="-0.89885">
        <ele>7.1999998092651</ele>
        <time>2015-03-02T10:02:33.000Z</time>
      </trkpt>
      <trkpt lat="46.25002" lon="-0.89859">
        <ele>7.4000000953674</ele>
        <time>2015-03-02T10:02:46.000Z</time>
      </trkpt>
      <trkpt lat="46.25002" lon="-0.89832">
        <ele>7.4000000953674</ele>
        <time>2015-03-02T10:02:58.000Z</time>
      </trkpt>
      <trkpt lat="46.25" lon="-0.89805">
        <ele>7.4000000953674</ele>
        <time>2015-03-02T10:03:10.000Z</time>
      </trkpt>
      <trkpt lat="46.25001" lon="-0.89778">
        <ele>7.5999999046326</ele>
        <time>2015-03-02T10:03:22.000Z</time>
      </trkpt>
      <trkpt lat="46.25001" lon="-0.8975">
        <ele>8</ele>
        <time>2015-03-02T10:03:34.000Z</time>
      </trkpt>
      <trkpt lat="46.25002" lon="-0.89722">
        <ele>8.1999998092651</ele>
        <time>2015-03-02T10:03:46.000Z</time>
      </trkpt>
      <trkpt lat="46.25003" lon="-0.89695">
        <ele>8</ele>
        <time>2015-03-02T10:03:58.000Z</time>
      </trkpt>
      <trkpt lat="46.25004" lon="-0.89668">
        <ele>7.4000000953674</ele>
        <time>2015-03-02T10:04:10.000Z</time>
      </trkpt>
      <trkpt lat="46.25003" lon="-0.89651">
        <ele>7</ele>
        <time>2015-03-02T10:04:18.000Z</time>
      </trkpt>
      <trkpt lat="46.25002" lon="-0.89624">
        <ele>6.4000000953674</ele>
        <time>2015-03-02T10:04:31.000Z</time>
      </trkpt>
      <trkpt lat="46.25" lon="-0.89597">
        <ele>5.8000001907349</ele>
        <time>2015-03-02T10:04:44.000Z</time>
      </trkpt>
      <trkpt lat="46.24998" lon="-0.8957">
        <ele>5.1999998092651</ele>
        <time>2015-03-02T10:04:57.000Z</time>
      </trkpt>
      <trkpt lat="46.24996" lon="-0.89544">
        <ele>4.8000001907349</ele>
        <time>2015-03-02T10:05:10.000Z</time>
      </trkpt>
      <trkpt lat="46.24992" lon="-0.89518">
        <ele>5.1999998092651</ele>
        <time>2015-03-02T10:05:24.000Z</time>
      </trkpt>
      <trkpt lat="46.2499" lon="-0.89491">
        <ele>5.5999999046326</ele>
        <time>2015-03-02T10:05:37.000Z</time>
      </trkpt>
      <trkpt lat="46.24995" lon="-0.89465">
        <ele>5.8000001907349</ele>
        <time>2015-03-02T10:05:50.000Z</time>
      </trkpt>
      <trkpt lat="46.24996" lon="-0.89452">
        <ele>5.8000001907349</ele>
        <time>2015-03-02T10:05:57.000Z</time>
      </trkpt>
      <trkpt lat="46.25" lon="-0.89428">
        <ele>6</ele>
        <time>2015-03-02T10:06:24.000Z</time>
      </trkpt>
      <trkpt lat="46.25005" lon="-0.89403">
        <ele>6.1999998092651</ele>
        <time>2015-03-02T10:06:40.000Z</time>
      </trkpt>
      <trkpt lat="46.25015" lon="-0.8938">
        <ele>6.1999998092651</ele>
        <time>2015-03-02T10:06:55.000Z</time>
      </trkpt>
      <trkpt lat="46.25023" lon="-0.89356">
        <ele>6</ele>
        <time>2015-03-02T10:07:09.000Z</time>
      </trkpt>
      <trkpt lat="46.25026" lon="-0.89349">
        <ele>5.8000001907349</ele>
        <time>2015-03-02T10:07:15.000Z</time>
      </trkpt>
      <trkpt lat="46.25026" lon="-0.89348">
        <ele>5.8000001907349</ele>
        <time>2015-03-02T10:07:18.000Z</time>
      </trkpt>
      <trkpt lat="46.25031" lon="-0.89333">
        <ele>5.8000001907349</ele>
        <time>2015-03-02T10:08:56.000Z</time>
      </trkpt>
      <trkpt lat="46.25031" lon="-0.89332">
        <ele>5.8000001907349</ele>
        <time>2015-03-02T10:08:57.000Z</time>
      </trkpt>
      <trkpt lat="46.25033" lon="-0.89328">
        <ele>5.5999999046326</ele>
        <time>2015-03-02T10:09:03.000Z</time>
      </trkpt>
      <trkpt lat="46.25037" lon="-0.89309">
        <ele>5.5999999046326</ele>
        <time>2015-03-02T10:10:03.000Z</time>
      </trkpt>
      <trkpt lat="46.25045" lon="-0.89285">
        <ele>5.4000000953674</ele>
        <time>2015-03-02T10:10:18.000Z</time>
      </trkpt>
      <trkpt lat="46.25052" lon="-0.89259">
        <ele>5.1999998092651</ele>
        <time>2015-03-02T10:10:32.000Z</time>
      </trkpt>
      <trkpt lat="46.25059" lon="-0.89235">
        <ele>5</ele>
        <time>2015-03-02T10:10:46.000Z</time>
      </trkpt>
      <trkpt lat="46.25064" lon="-0.8921">
        <ele>4.8000001907349</ele>
        <time>2015-03-02T10:11:00.000Z</time>
      </trkpt>
      <trkpt lat="46.25063" lon="-0.89184">
        <ele>4.5999999046326</ele>
        <time>2015-03-02T10:11:14.000Z</time>
      </trkpt>
      <trkpt lat="46.25063" lon="-0.89157">
        <ele>4.1999998092651</ele>
        <time>2015-03-02T10:11:28.000Z</time>
      </trkpt>
      <trkpt lat="46.25064" lon="-0.8913">
        <ele>4.1999998092651</ele>
        <time>2015-03-02T10:11:42.000Z</time>
      </trkpt>
      <trkpt lat="46.25062" lon="-0.89104">
        <ele>4.8000001907349</ele>
        <time>2015-03-02T10:11:56.000Z</time>
      </trkpt>
      <trkpt lat="46.25057" lon="-0.89079">
        <ele>5.5999999046326</ele>
        <time>2015-03-02T10:12:09.000Z</time>
      </trkpt>
      <trkpt lat="46.2505" lon="-0.89054">
        <ele>6</ele>
        <time>2015-03-02T10:12:22.000Z</time>
      </trkpt>
      <trkpt lat="46.25041" lon="-0.89031">
        <ele>6</ele>
        <time>2015-03-02T10:12:36.000Z</time>
      </trkpt>
      <trkpt lat="46.2503" lon="-0.89009">
        <ele>6</ele>
        <time>2015-03-02T10:12:49.000Z</time>
      </trkpt>
      <trkpt lat="46.25021" lon="-0.88987">
        <ele>5.4000000953674</ele>
        <time>2015-03-02T10:13:02.000Z</time>
      </trkpt>
      <trkpt lat="46.25011" lon="-0.88964">
        <ele>4.8000001907349</ele>
        <time>2015-03-02T10:13:15.000Z</time>
      </trkpt>
      <trkpt lat="46.25002" lon="-0.8894">
        <ele>4.5999999046326</ele>
        <time>2015-03-02T10:13:28.000Z</time>
      </trkpt>
      <trkpt lat="46.24996" lon="-0.88915">
        <ele>5</ele>
        <time>2015-03-02T10:13:42.000Z</time>
      </trkpt>
      <trkpt lat="46.24992" lon="-0.88889">
        <ele>5.1999998092651</ele>
        <time>2015-03-02T10:13:55.000Z</time>
      </trkpt>
      <trkpt lat="46.24986" lon="-0.88862">
        <ele>5.4000000953674</ele>
        <time>2015-03-02T10:14:09.000Z</time>
      </trkpt>
      <trkpt lat="46.24982" lon="-0.88836">
        <ele>5.5999999046326</ele>
        <time>2015-03-02T10:14:21.000Z</time>
      </trkpt>
      <trkpt lat="46.24979" lon="-0.8881">
        <ele>6</ele>
        <time>2015-03-02T10:14:34.000Z</time>
      </trkpt>
      <trkpt lat="46.24985" lon="-0.88785">
        <ele>5.8000001907349</ele>
        <time>2015-03-02T10:14:47.000Z</time>
      </trkpt>
      <trkpt lat="46.24997" lon="-0.88766">
        <ele>5.8000001907349</ele>
        <time>2015-03-02T10:15:00.000Z</time>
      </trkpt>
      <trkpt lat="46.25011" lon="-0.88747">
        <ele>5.5999999046326</ele>
        <time>2015-03-02T10:15:13.000Z</time>
      </trkpt>
      <trkpt lat="46.25026" lon="-0.88733">
        <ele>5.5999999046326</ele>
        <time>2015-03-02T10:15:26.000Z</time>
      </trkpt>
      <trkpt lat="46.25043" lon="-0.88723">
        <ele>5.8000001907349</ele>
        <time>2015-03-02T10:15:38.000Z</time>
      </trkpt>
      <trkpt lat="46.2506" lon="-0.88715">
        <ele>5.8000001907349</ele>
        <time>2015-03-02T10:15:50.000Z</time>
      </trkpt>
      <trkpt lat="46.25079" lon="-0.88709">
        <ele>6.1999998092651</ele>
        <time>2015-03-02T10:16:03.000Z</time>
      </trkpt>
      <trkpt lat="46.25079" lon="-0.88708">
        <ele>6.1999998092651</ele>
        <time>2015-03-02T10:16:04.000Z</time>
      </trkpt>
      <trkpt lat="46.2508" lon="-0.88708">
        <ele>6.1999998092651</ele>
        <time>2015-03-02T10:16:08.000Z</time>
      </trkpt>
      <trkpt lat="46.25091" lon="-0.88704">
        <ele>6.1999998092651</ele>
        <time>2015-03-02T10:16:26.000Z</time>
      </trkpt>
      <trkpt lat="46.25093" lon="-0.88704">
        <ele>6.1999998092651</ele>
        <time>2015-03-02T10:16:27.000Z</time>
      </trkpt>
      <trkpt lat="46.2511" lon="-0.88695">
        <ele>6.4000000953674</ele>
        <time>2015-03-02T10:16:42.000Z</time>
      </trkpt>
      <trkpt lat="46.25128" lon="-0.88688">
        <ele>6.4000000953674</ele>
        <time>2015-03-02T10:16:57.000Z</time>
      </trkpt>
      <trkpt lat="46.25142" lon="-0.88673">
        <ele>6.5999999046326</ele>
        <time>2015-03-02T10:17:14.000Z</time>
      </trkpt>
      <trkpt lat="46.25142" lon="-0.88669">
        <ele>6.5999999046326</ele>
        <time>2015-03-02T10:17:16.000Z</time>
      </trkpt>
      <trkpt lat="46.25141" lon="-0.88663">
        <ele>6.8000001907349</ele>
        <time>2015-03-02T10:17:20.000Z</time>
      </trkpt>
      <trkpt lat="46.25142" lon="-0.88658">
        <ele>6.8000001907349</ele>
        <time>2015-03-02T10:17:23.000Z</time>
      </trkpt>
      <trkpt lat="46.25147" lon="-0.88652">
        <ele>6.8000001907349</ele>
        <time>2015-03-02T10:17:28.000Z</time>
      </trkpt>
      <trkpt lat="46.25164" lon="-0.88643">
        <ele>7</ele>
        <time>2015-03-02T10:17:42.000Z</time>
      </trkpt>
      <trkpt lat="46.2518" lon="-0.88637">
        <ele>7</ele>
        <time>2015-03-02T10:18:00.000Z</time>
      </trkpt>
      <trkpt lat="46.25195" lon="-0.88638">
        <ele>7</ele>
        <time>2015-03-02T10:20:25.000Z</time>
      </trkpt>
      <trkpt lat="46.25196" lon="-0.88637">
        <ele>7</ele>
        <time>2015-03-02T10:20:26.000Z</time>
      </trkpt>
      <trkpt lat="46.25194" lon="-0.88639">
        <ele>7</ele>
        <time>2015-03-02T10:20:36.000Z</time>
      </trkpt>
      <trkpt lat="46.25191" lon="-0.88649">
        <ele>6.8000001907349</ele>
        <time>2015-03-02T10:28:32.000Z</time>
      </trkpt>
      <trkpt lat="46.25191" lon="-0.88649">
        <ele>6.8000001907349</ele>
        <time>2015-03-02T10:28:34.000Z</time>
      </trkpt>
      <trkpt lat="46.25186" lon="-0.8865">
        <ele>6.8000001907349</ele>
        <time>2015-03-02T10:29:11.000Z</time>
      </trkpt>
      <trkpt lat="46.25185" lon="-0.88649">
        <ele>6.8000001907349</ele>
        <time>2015-03-02T10:29:12.000Z</time>
      </trkpt>
      <trkpt lat="46.25179" lon="-0.88643">
        <ele>7</ele>
        <time>2015-03-02T10:29:22.000Z</time>
      </trkpt>
      <trkpt lat="46.25179" lon="-0.88644">
        <ele>7</ele>
        <time>2015-03-02T10:29:29.000Z</time>
      </trkpt>
      <trkpt lat="46.25186" lon="-0.88649">
        <ele>6.8000001907349</ele>
        <time>2015-03-02T10:31:31.000Z</time>
      </trkpt>
      <trkpt lat="46.25186" lon="-0.88651">
        <ele>6.8000001907349</ele>
        <time>2015-03-02T10:31:32.000Z</time>
      </trkpt>
      <trkpt lat="46.25186" lon="-0.88653">
        <ele>6.8000001907349</ele>
        <time>2015-03-02T10:31:37.000Z</time>
      </trkpt>
    </trkseg>
  </trk>
</gpx>